Time;durP1;ratioP1;P1;durP2;ratioP2;P2;SDS_P1;SDS_P2;PMS_P1;PMS_P2;Temp;Humidity;BMP_temperature;BMP_pressure;BME280_temperature;BME280_humidity;BME280_pressure;Samples;Min_cycle;Max_cycle;Signal;HPM_P1;HPM_P2
2023/10/10 00:00:55;;;;;;;13.18;6.93;;;15.50;99.90;;;;;;5036971;28;20032;-67
2023/10/10 00:03:27;;;;;;;11.15;6.13;;;15.40;99.90;;;;;;5051854;28;20111;-69
2023/10/10 00:05:55;;;;;;;11.50;5.72;;;15.40;99.90;;;;;;5052272;28;20049;-68
2023/10/10 00:08:27;;;;;;;13.32;6.28;;;15.50;99.90;;;;;;5019096;28;20040;-69
2023/10/10 00:10:55;;;;;;;10.75;6.32;;;15.50;99.90;;;;;;5036556;28;20041;-68
2023/10/10 00:13:27;;;;;;;11.27;5.80;;;15.50;99.90;;;;;;5036403;28;20539;-68
2023/10/10 00:15:55;;;;;;;;;;;15.50;99.90;;;;;;5037000;28;20041;-66
2023/10/10 00:18:29;;;;;;;13.23;6.07;;;15.40;99.90;;;;;;5052116;28;19925;-69
2023/10/10 00:21:08;;;;;;;14.38;5.95;;;15.40;99.90;;;;;;5019935;28;20040;-67
2023/10/10 00:23:54;;;;;;;12.95;5.32;;;15.50;99.90;;;;;;5022302;28;20037;-67
2023/10/10 00:26:23;;;;;;;10.05;5.93;;;15.40;99.90;;;;;;5007888;28;20095;-68
2023/10/10 00:28:57;;;;;;;14.15;6.25;;;15.50;99.90;;;;;;5003923;28;20452;-69
2023/10/10 00:31:28;;;;;;;12.63;5.88;;;15.50;99.90;;;;;;5038349;28;20048;-69
2023/10/10 00:33:55;;;;;;;12.15;5.50;;;15.50;99.90;;;;;;5037371;28;20049;-68
2023/10/10 00:36:33;;;;;;;11.88;5.90;;;15.40;99.90;;;;;;5036061;28;20049;-72
2023/10/10 00:39:06;;;;;;;11.65;6.75;;;15.40;99.90;;;;;;5038166;28;20436;-69
2023/10/10 00:41:50;;;;;;;10.32;5.50;;;15.40;99.90;;;;;;5036310;28;20387;-69
2023/10/10 00:44:25;;;;;;;11.30;6.35;;;15.50;99.90;;;;;;5035704;28;20080;-69
2023/10/10 00:46:58;;;;;;;12.02;5.93;;;15.40;99.90;;;;;;5058457;28;20033;-74
2023/10/10 00:49:31;;;;;;;12.15;6.20;;;15.50;99.90;;;;;;5047229;28;20037;-71
2023/10/10 00:52:06;;;;;;;11.82;5.80;;;15.40;99.90;;;;;;5064399;28;20045;-73
2023/10/10 00:54:40;;;;;;;13.68;7.25;;;15.50;99.90;;;;;;5060999;28;20108;-71
2023/10/10 00:57:13;;;;;;;12.27;6.22;;;15.40;99.90;;;;;;5043495;28;20041;-71
2023/10/10 00:59:43;;;;;;;13.95;7.00;;;15.40;99.90;;;;;;5059378;28;20033;-72
2023/10/10 01:02:14;;;;;;;14.15;6.35;;;15.40;99.90;;;;;;5058416;28;20041;-73
2023/10/10 01:07:34;;;;;;;19.98;9.80;;;15.40;99.90;;;;;;5044382;28;20094;-73
2023/10/10 01:10:12;;;;;;;11.63;6.70;;;15.40;99.90;;;;;;5024664;28;20045;-75
2023/10/10 01:12:42;;;;;;;11.80;7.40;;;15.40;99.90;;;;;;5057154;28;20063;-72
2023/10/10 01:15:15;;;;;;;16.50;10.02;;;15.40;99.90;;;;;;5024964;28;20099;-73
2023/10/10 01:17:44;;;;;;;15.30;8.93;;;15.40;99.90;;;;;;5040151;28;20048;-73
2023/10/10 01:20:18;;;;;;;19.98;11.75;;;15.40;99.90;;;;;;5055229;28;20076;-72
2023/10/10 01:22:54;;;;;;;19.02;11.10;;;15.40;99.90;;;;;;5039722;28;20110;-72
2023/10/10 01:31:03;;;;;;;18.50;11.52;;;15.40;99.90;;;;;;5056479;28;20051;-73
2023/10/10 01:33:36;;;;;;;16.50;9.93;;;15.40;99.90;;;;;;5072934;28;20112;-73
2023/10/10 01:36:21;;;;;;;21.27;13.52;;;15.40;99.90;;;;;;5039667;28;20052;-71
2023/10/10 01:38:56;;;;;;;15.85;11.02;;;15.40;99.90;;;;;;5024273;28;20033;-72
2023/10/10 01:41:41;;;;;;;21.45;13.95;;;15.40;99.90;;;;;;5055634;28;20080;-73
2023/10/10 01:44:18;;;;;;;20.50;14.80;;;15.40;99.90;;;;;;5030411;28;20036;-73
2023/10/10 01:46:45;;;;;;;15.95;11.40;;;15.40;99.90;;;;;;5054996;28;20072;-73
2023/10/10 01:49:21;;;;;;;16.25;11.15;;;15.40;99.90;;;;;;5038914;28;20481;-74
2023/10/10 01:51:54;;;;;;;22.63;15.18;;;15.40;99.90;;;;;;5071942;28;20055;-72
2023/10/10 01:55:03;;;;;;;19.23;12.55;;;15.40;99.90;;;;;;5071471;28;20067;-73
2023/10/10 01:57:20;;;;;;;18.42;13.18;;;15.40;99.90;;;;;;5037929;28;20490;-72
2023/10/10 01:59:47;;;;;;;21.80;14.45;;;15.40;99.90;;;;;;5037630;28;20076;-73
2023/10/10 02:02:18;;;;;;;15.90;11.18;;;15.40;99.90;;;;;;5070743;28;20044;-73
2023/10/10 02:04:44;;;;;;;20.67;14.52;;;15.40;99.90;;;;;;5053990;28;20044;-72
2023/10/10 02:07:23;;;;;;;20.17;13.82;;;15.40;99.90;;;;;;5054000;28;20492;-73
2023/10/10 02:09:59;;;;;;;17.48;13.85;;;15.40;99.90;;;;;;5037535;28;20037;-74
2023/10/10 02:12:34;;;;;;;17.75;13.63;;;15.40;99.90;;;;;;5070248;28;20047;-72
2023/10/10 02:15:11;;;;;;;15.82;13.20;;;15.40;99.90;;;;;;5022366;28;20477;-73
2023/10/10 02:17:51;;;;;;;17.02;12.65;;;15.40;99.90;;;;;;5053613;28;20099;-73
2023/10/10 02:30:43;;;;;;;18.90;11.20;;;15.40;99.90;;;;;;5053231;28;20202;-73
2023/10/10 02:33:31;;;;;;;17.80;11.88;;;15.50;99.90;;;;;;5053019;28;20600;-73
2023/10/10 02:36:01;;;;;;;15.55;10.45;;;15.40;99.90;;;;;;5036689;28;20049;-73
2023/10/10 02:38:54;;;;;;;18.95;11.15;;;15.50;99.90;;;;;;5036281;28;20049;-73
2023/10/10 02:46:36;;;;;;;15.65;10.57;;;15.40;99.90;;;;;;5052906;28;20041;-72
2023/10/10 02:49:22;;;;;;;13.85;9.57;;;15.40;99.90;;;;;;5069680;28;20041;-73
2023/10/10 02:51:49;;;;;;;14.82;10.88;;;15.40;99.90;;;;;;5012217;28;20439;-74
2023/10/10 02:54:43;;;;;;;13.77;9.43;;;15.40;99.90;;;;;;5052856;28;20076;-73
2023/10/10 02:59:52;;;;;;;15.55;9.88;;;15.40;99.90;;;;;;5052537;28;20520;-74
2023/10/10 03:02:49;;;;;;;11.90;8.68;;;15.40;99.90;;;;;;5069236;28;20037;-74
2023/10/10 03:05:20;;;;;;;15.25;10.90;;;15.40;99.90;;;;;;5052489;28;20503;-73
2023/10/10 03:07:51;;;;;;;16.38;10.65;;;15.40;99.90;;;;;;5051629;28;20067;-69
2023/10/10 03:10:35;;;;;;;18.98;11.43;;;15.40;99.90;;;;;;5020512;28;20083;-68
2023/10/10 03:15:55;;;;;;;15.40;10.95;;;15.30;99.90;;;;;;5008662;28;20437;-70
2023/10/10 03:18:28;;;;;;;16.80;10.20;;;15.30;99.90;;;;;;5051843;28;20132;-68
2023/10/10 03:23:54;;;;;;;14.77;9.90;;;15.30;99.90;;;;;;5017020;28;20052;-69
2023/10/10 03:29:11;;;;;;;14.73;9.30;;;15.30;99.90;;;;;;5038139;28;20099;-73
2023/10/10 03:31:47;;;;;;;17.25;10.68;;;15.20;99.90;;;;;;5035439;28;20045;-73
2023/10/10 03:39:55;;;;;;;18.35;11.45;;;15.20;99.90;;;;;;5010835;28;20052;-73
2023/10/10 05:25:23;;;;;;;26.02;19.05;;;15.00;99.90;;;;;;5039849;28;20048;-68
2023/10/10 05:27:51;;;;;;;26.40;19.55;;;15.00;99.90;;;;;;5054275;28;20036;-73
2023/10/10 05:30:23;;;;;;;25.02;18.77;;;15.00;99.90;;;;;;5037519;28;20500;-72
2023/10/10 05:33:02;;;;;;;25.08;18.88;;;15.00;99.90;;;;;;5036396;28;20041;-73
2023/10/10 05:35:33;;;;;;;30.42;21.95;;;15.00;99.90;;;;;;5053694;28;20057;-73
2023/10/10 05:38:05;;;;;;;29.15;20.80;;;15.00;99.90;;;;;;5037243;28;20044;-75
2023/10/10 05:40:33;;;;;;;31.70;22.10;;;15.00;99.90;;;;;;5053666;28;20135;-74
2023/10/10 05:43:03;;;;;;;32.10;22.85;;;15.00;99.90;;;;;;5037312;28;20481;-74
2023/10/10 05:45:34;;;;;;;29.95;21.52;;;15.00;99.90;;;;;;5037427;28;20541;-74
2023/10/10 05:48:07;;;;;;;36.75;24.83;;;15.00;99.90;;;;;;5021947;28;20047;-73
2023/10/10 05:50:33;;;;;;;31.05;22.80;;;14.90;99.90;;;;;;5037136;28;20045;-73
2023/10/10 05:53:06;;;;;;;30.90;23.48;;;14.90;99.90;;;;;;5053957;28;20095;-73
2023/10/10 05:55:37;;;;;;;25.02;18.75;;;14.90;99.90;;;;;;5053881;28;20045;-73
2023/10/10 05:58:03;;;;;;;23.43;18.57;;;14.90;99.90;;;;;;5037258;28;20049;-72
2023/10/10 06:00:36;;;;;;;23.75;18.85;;;14.90;99.90;;;;;;5053993;28;20302;-73
2023/10/10 06:03:06;;;;;;;30.17;22.38;;;14.80;99.90;;;;;;5037570;28;20554;-73
2023/10/10 06:05:33;;;;;;;32.88;23.42;;;14.80;99.90;;;;;;5037841;28;20045;-73
2023/10/10 06:08:01;;;;;;;25.50;20.27;;;14.80;99.90;;;;;;5037338;28;20049;-74
2023/10/10 06:10:31;;;;;;;22.95;18.48;;;14.80;99.90;;;;;;5037349;28;20041;-73
2023/10/10 06:13:03;;;;;;;30.50;21.17;;;14.80;99.90;;;;;;5070867;28;20076;-74
2023/10/10 06:15:29;;;;;;;;;;;14.80;99.90;;;;;;5054112;28;20036;-72
2023/10/10 06:17:57;;;;;;;34.10;25.00;;;14.80;99.90;;;;;;5053998;28;20270;-74
2023/10/10 06:20:26;;;;;;;53.90;31.85;;;14.80;99.90;;;;;;5037395;28;20087;-73
2023/10/10 06:22:55;;;;;;;56.85;32.22;;;14.80;99.90;;;;;;5020450;28;20036;-74
2023/10/10 06:25:24;;;;;;;44.30;29.40;;;14.80;99.90;;;;;;5053691;28;20044;-74
2023/10/10 06:27:56;;;;;;;39.72;27.88;;;14.80;99.90;;;;;;5053158;28;20075;-74
2023/10/10 06:30:24;;;;;;;41.85;30.25;;;14.70;99.90;;;;;;5036530;28;20496;-74
2023/10/10 06:32:51;;;;;;;37.58;27.50;;;14.80;99.90;;;;;;5036750;28;20049;-73
2023/10/10 06:37:52;;;;;;;52.85;33.47;;;14.80;99.90;;;;;;5053007;28;20063;-73
2023/10/10 06:40:28;;;;;;;48.70;32.40;;;14.80;99.90;;;;;;5052721;28;20124;-72
2023/10/10 06:42:56;;;;;;;45.00;31.17;;;14.80;99.90;;;;;;5037435;28;20048;-73
2023/10/10 06:45:37;;;;;;;43.05;30.98;;;14.80;99.90;;;;;;5036818;28;20041;-72
2023/10/10 06:48:09;;;;;;;46.80;32.13;;;14.90;99.90;;;;;;5053230;28;20041;-73
2023/10/10 06:50:38;;;;;;;46.35;32.58;;;14.90;99.90;;;;;;5036436;28;20041;-73
2023/10/10 06:53:05;;;;;;;48.03;32.22;;;15.00;99.90;;;;;;5020262;28;20045;-73
2023/10/10 06:55:37;;;;;;;43.20;32.10;;;15.10;99.90;;;;;;5053146;28;20040;-73
2023/10/10 06:58:05;;;;;;;45.65;32.85;;;15.20;99.90;;;;;;5036394;28;20037;-73
2023/10/10 07:00:42;;;;;;;46.88;33.55;;;15.30;99.90;;;;;;5053002;28;20451;-73
2023/10/10 07:03:30;;;;;;;49.75;34.75;;;15.40;99.90;;;;;;5053064;28;20044;-73
2023/10/10 07:06:03;;;;;;;50.00;36.08;;;15.50;99.90;;;;;;5052600;28;20072;-74
2023/10/10 07:08:34;;;;;;;51.58;35.72;;;15.60;99.90;;;;;;5052874;28;20037;-72
2023/10/10 07:11:09;;;;;;;48.00;34.42;;;15.70;99.90;;;;;;5036349;28;20098;-73
2023/10/10 07:13:35;;;;;;;50.85;35.08;;;15.70;99.90;;;;;;5052759;28;20128;-74
2023/10/10 07:16:01;;;;;;;46.15;33.47;;;15.70;99.90;;;;;;5052692;28;20049;-72
2023/10/10 07:18:27;;;;;;;46.25;33.88;;;15.70;99.90;;;;;;5035960;28;20087;-73
2023/10/10 07:21:04;;;;;;;45.90;33.63;;;15.70;99.90;;;;;;5019520;28;20124;-74
2023/10/10 07:23:38;;;;;;;51.65;36.65;;;15.80;99.90;;;;;;5052110;28;20037;-73
2023/10/10 07:26:18;;;;;;;51.95;36.88;;;15.80;99.90;;;;;;5036002;28;20040;-74
2023/10/10 07:29:26;;;;;;;52.17;34.80;;;15.90;99.90;;;;;;5052238;28;20098;-74
2023/10/10 07:32:07;;;;;;;48.13;34.75;;;15.90;99.90;;;;;;5051950;28;20045;-73
2023/10/10 07:34:42;;;;;;;49.45;35.72;;;15.90;99.90;;;;;;5037296;28;20533;-73
2023/10/10 07:37:14;;;;;;;47.95;33.80;;;15.90;99.90;;;;;;5051823;28;20049;-72
2023/10/10 07:39:55;;;;;;;47.92;35.08;;;15.90;99.90;;;;;;5035234;28;20041;-72
2023/10/10 07:42:29;;;;;;;53.63;36.90;;;16.00;99.90;;;;;;5037327;28;20094;-74
2023/10/10 07:44:56;;;;;;;48.35;35.45;;;16.00;99.90;;;;;;5035317;28;20072;-73
2023/10/10 07:47:32;;;;;;;52.60;39.25;;;16.10;99.90;;;;;;5052070;28;20413;-73
2023/10/10 07:50:08;;;;;;;55.60;42.10;;;16.10;99.90;;;;;;5035576;28;20079;-73
2023/10/10 07:52:35;;;;;;;58.75;44.47;;;16.20;99.90;;;;;;5035154;28;20036;-73
2023/10/10 07:55:07;;;;;;;63.17;45.08;;;16.30;99.90;;;;;;5037244;28;20029;-73
2023/10/10 08:00:39;;;;;;;61.65;45.80;;;16.50;99.90;;;;;;5034287;28;20037;-73
2023/10/10 08:03:13;;;;;;;62.80;46.72;;;16.60;99.90;;;;;;5056010;28;20108;-74
2023/10/10 08:05:42;;;;;;;63.55;47.75;;;16.70;99.90;;;;;;5056039;28;20098;-73
2023/10/10 08:08:13;;;;;;;62.95;47.45;;;16.70;99.90;;;;;;5038902;28;20060;-72
2023/10/10 08:10:38;;;;;;;60.58;46.28;;;16.70;99.90;;;;;;5039257;28;20516;-74
2023/10/10 08:13:11;;;;;;;68.10;50.25;;;16.70;99.90;;;;;;5022443;28;20040;-74
2023/10/10 08:16:01;;;;;;;65.20;48.67;;;16.70;99.90;;;;;;5055358;28;20128;-74
2023/10/10 08:18:49;;;;;;;64.50;50.70;;;16.80;99.90;;;;;;5041227;28;20049;-73
2023/10/10 08:21:15;;;;;;;71.88;53.17;;;16.80;99.90;;;;;;5055280;28;20040;-73
2023/10/10 08:23:42;;;;;;;69.00;51.80;;;16.90;99.90;;;;;;5055518;28;20401;-74
2023/10/10 08:26:29;;;;;;;71.85;51.22;;;17.00;99.90;;;;;;5038781;28;20076;-74
2023/10/10 08:28:55;;;;;;;71.97;55.33;;;17.00;99.90;;;;;;5038676;28;20154;-71
2023/10/10 08:31:22;;;;;;;79.10;55.70;;;17.00;99.90;;;;;;5038766;28;20512;-73
2023/10/10 08:33:49;;;;;;;76.47;54.33;;;17.10;99.90;;;;;;5038919;28;20065;-73
2023/10/10 08:36:35;;;;;;;73.35;55.85;;;17.10;99.90;;;;;;5072104;28;20438;-73
2023/10/10 08:41:44;;;;;;;77.60;55.15;;;17.10;99.90;;;;;;5040009;28;20045;-73
2023/10/10 08:44:17;;;;;;;72.57;53.00;;;17.00;99.90;;;;;;5038686;28;20097;-73
2023/10/10 08:46:48;;;;;;;78.20;54.55;;;17.10;99.90;;;;;;5038281;28;20048;-73
2023/10/10 08:49:15;;;;;;;65.87;47.80;;;17.10;99.90;;;;;;5055057;28;20048;-73
2023/10/10 08:51:49;;;;;;;77.88;53.88;;;17.00;99.90;;;;;;5038589;28;20049;-72
2023/10/10 08:54:15;;;;;;;77.40;52.88;;;17.10;99.90;;;;;;5038601;28;20045;-71
2023/10/10 08:56:42;;;;;;;74.60;50.90;;;17.10;99.90;;;;;;5055490;28;20516;-71
2023/10/10 08:59:10;;;;;;;82.07;54.30;;;17.10;99.90;;;;;;5054651;28;20123;-71
2023/10/10 09:01:37;;;;;;;80.50;53.80;;;17.20;99.90;;;;;;5054863;28;20094;-72
2023/10/10 09:04:04;;;;;;;73.32;49.65;;;17.20;99.90;;;;;;5054998;28;20040;-73
2023/10/10 09:06:58;;;;;;;79.20;53.92;;;17.40;99.90;;;;;;5036930;28;20066;-71
2023/10/10 09:09:34;;;;;;;73.50;51.90;;;17.50;99.90;;;;;;5054339;28;20052;-72
2023/10/10 09:12:12;;;;;;;70.28;51.50;;;17.60;99.90;;;;;;5055360;28;20508;-73
2023/10/10 09:14:40;;;;;;;75.70;52.60;;;17.70;99.90;;;;;;5071735;28;20122;-73
2023/10/10 09:17:14;;;;;;;71.05;51.00;;;17.80;99.90;;;;;;5055298;28;20037;-73
2023/10/10 09:19:49;;;;;;;68.78;51.08;;;18.00;99.90;;;;;;5054697;28;20063;-72
2023/10/10 09:22:42;;;;;;;66.20;48.95;;;18.10;99.90;;;;;;5037958;28;20033;-71
2023/10/10 09:25:27;;;;;;;64.75;49.20;;;18.30;99.90;;;;;;5054605;28;20059;-74
2023/10/10 09:28:15;;;;;;;60.15;47.28;;;18.50;99.90;;;;;;5039172;28;20037;-72
2023/10/10 09:30:45;;;;;;;60.50;45.85;;;18.70;99.90;;;;;;5037662;28;20531;-72
2023/10/10 09:33:27;;;;;;;57.22;45.90;;;18.80;99.90;;;;;;5053972;28;20057;-73
2023/10/10 09:36:08;;;;;;;57.30;45.55;;;18.90;99.90;;;;;;5037829;28;20144;-73
2023/10/10 09:39:08;;;;;;;58.53;45.05;;;18.90;99.90;;;;;;5053657;28;20049;-72
2023/10/10 09:41:36;;;;;;;57.35;45.80;;;18.90;99.90;;;;;;5053523;28;20048;-72
2023/10/10 09:55:08;;;;;;;54.85;42.83;;;19.30;99.90;;;;;;5054207;28;20049;-71
2023/10/10 09:57:58;;;;;;;53.88;42.55;;;19.50;99.90;;;;;;5054323;28;20051;-72
2023/10/10 10:03:25;;;;;;;52.53;41.42;;;19.50;99.90;;;;;;5038614;28;20041;-72
2023/10/10 10:05:59;;;;;;;47.67;40.05;;;19.60;99.90;;;;;;5054177;28;20045;-69
2023/10/10 10:08:47;;;;;;;47.30;40.17;;;19.70;99.90;;;;;;5053123;28;20041;-69
2023/10/10 10:11:19;;;;;;;49.70;39.47;;;19.80;99.90;;;;;;5053067;28;20159;-68
2023/10/10 10:14:47;;;;;;;49.67;40.53;;;19.80;99.90;;;;;;5053301;28;20544;-68
2023/10/10 10:17:57;;;;;;;49.15;39.72;;;19.80;99.90;;;;;;4976292;28;20042;-67
2023/10/10 10:20:46;;;;;;;52.00;41.00;;;19.90;99.90;;;;;;4976401;28;20162;-69
2023/10/10 10:23:28;;;;;;;48.70;39.60;;;20.00;99.90;;;;;;5039126;28;20144;-69
2023/10/10 10:26:11;;;;;;;47.80;39.25;;;20.00;99.90;;;;;;5053039;28;20558;-69
2023/10/10 10:28:41;;;;;;;47.70;38.90;;;20.00;99.90;;;;;;5036404;28;20041;-68
2023/10/10 10:31:16;;;;;;;43.33;37.22;;;20.00;99.90;;;;;;5052954;28;20044;-68
2023/10/10 10:34:23;;;;;;;46.08;38.92;;;20.00;99.90;;;;;;5052737;28;20408;-67
2023/10/10 10:37:02;;;;;;;43.33;36.92;;;20.00;99.90;;;;;;5035999;28;20049;-69
2023/10/10 10:39:36;;;;;;;49.25;38.15;;;20.00;99.90;;;;;;5052528;28;20526;-69
2023/10/10 10:42:11;;;;;;;45.78;37.42;;;20.00;99.90;;;;;;5035908;28;20048;-69
2023/10/10 10:44:58;;;;;;;42.83;36.63;;;20.00;99.90;;;;;;5035559;28;20048;-68
2023/10/10 10:47:45;;;;;;;45.45;36.67;;;20.10;99.90;;;;;;5035786;28;20405;-68
2023/10/10 10:50:28;;;;;;;45.00;36.88;;;20.10;99.90;;;;;;5052386;28;20052;-68
2023/10/10 10:52:59;;;;;;;43.97;36.28;;;20.20;99.90;;;;;;5052627;28;20378;-68
2023/10/10 10:55:28;;;;;;;43.63;35.27;;;20.30;99.90;;;;;;5035704;28;20082;-69
2023/10/10 10:58:20;;;;;;;43.80;35.90;;;20.30;99.90;;;;;;5052538;28;20037;-72
2023/10/10 11:03:51;;;;;;;45.83;35.67;;;20.50;99.90;;;;;;5037724;28;20045;-72
2023/10/10 11:06:24;;;;;;;43.22;34.35;;;20.50;99.90;;;;;;5052372;28;20044;-73
2023/10/10 11:11:36;;;;;;;41.28;34.50;;;20.80;99.90;;;;;;5052545;28;20044;-72
2023/10/10 11:14:18;;;;;;;42.97;34.08;;;20.70;99.90;;;;;;5052043;28;20048;-73
2023/10/10 11:16:45;;;;;;;39.00;32.70;;;20.80;99.90;;;;;;5035578;28;20132;-73
2023/10/10 11:22:05;;;;;;;43.40;36.33;;;20.90;99.90;;;;;;5052218;28;20044;-73
2023/10/10 11:24:34;;;;;;;41.47;33.00;;;20.80;99.90;;;;;;5035776;28;20072;-72
2023/10/10 11:29:48;;;;;;;44.42;34.72;;;20.90;99.90;;;;;;5051555;28;20140;-72
2023/10/10 11:32:23;;;;;;;41.67;33.67;;;20.80;99.90;;;;;;5035456;28;20140;-71
2023/10/10 11:34:59;;;;;;;40.67;32.97;;;20.70;99.90;;;;;;5051868;28;20051;-73
2023/10/10 11:37:30;;;;;;;42.45;34.63;;;20.60;99.90;;;;;;5035257;28;20056;-72
2023/10/10 11:43:03;;;;;;;42.47;33.33;;;20.60;99.90;;;;;;5036526;28;20045;-72
2023/10/10 11:45:39;;;;;;;40.28;32.80;;;20.70;99.90;;;;;;5051926;28;20141;-72
2023/10/10 11:48:13;;;;;;;42.30;33.25;;;20.80;99.90;;;;;;5035343;28;20040;-72
2023/10/10 11:50:48;;;;;;;41.50;32.95;;;20.80;99.90;;;;;;5021055;28;20053;-72
2023/10/10 11:53:23;;;;;;;38.85;32.65;;;20.90;99.90;;;;;;5052062;28;20040;-73
2023/10/10 11:55:52;;;;;;;40.83;32.35;;;20.90;99.90;;;;;;5051614;28;20040;-72
2023/10/10 11:58:18;;;;;;;39.85;32.22;;;20.90;99.90;;;;;;5051787;28;20052;-72
2023/10/10 12:01:05;;;;;;;37.40;30.85;;;21.00;99.90;;;;;;5051917;28;20108;-72
2023/10/10 12:03:42;;;;;;;41.42;32.08;;;21.10;99.90;;;;;;5035351;28;20037;-72
2023/10/10 12:06:14;;;;;;;39.60;30.58;;;21.20;99.90;;;;;;5036700;28;20044;-72
2023/10/10 12:08:50;;;;;;;37.42;30.10;;;21.30;99.90;;;;;;5051760;28;20512;-71
2023/10/10 12:11:20;;;;;;;36.97;30.58;;;21.40;99.90;;;;;;5035037;28;20040;-72
2023/10/10 12:13:47;;;;;;;35.78;29.10;;;21.60;99.90;;;;;;5035233;28;20053;-73
2023/10/10 12:16:13;;;;;;;34.83;28.08;;;21.70;99.90;;;;;;5051566;28;20041;-71
2023/10/10 12:18:55;;;;;;;37.47;28.63;;;21.80;99.90;;;;;;5035128;28;20124;-74
2023/10/10 12:21:22;;;;;;;32.92;25.95;;;21.80;99.90;;;;;;5034877;28;20063;-72
2023/10/10 12:23:50;;;;;;;36.42;24.83;;;21.70;99.90;;;;;;5034948;28;20037;-72
2023/10/10 12:26:21;;;;;;;30.90;24.63;;;21.70;99.90;;;;;;5052011;28;20044;-72
2023/10/10 12:28:54;;;;;;;31.98;25.35;;;21.70;99.90;;;;;;5035137;28;20384;-72
2023/10/10 12:31:21;;;;;;;33.00;24.85;;;21.70;99.90;;;;;;5051269;28;20040;-72
2023/10/10 12:33:53;;;;;;;35.15;24.70;;;21.70;99.90;;;;;;5034841;28;20098;-72
2023/10/10 12:36:22;;;;;;;27.98;22.20;;;21.70;99.90;;;;;;5051135;28;20084;-72
2023/10/10 12:38:48;;;;;;;30.33;22.48;;;21.70;99.90;;;;;;5034610;28;20489;-72
2023/10/10 12:41:20;;;;;;;29.05;22.10;;;21.70;99.90;;;;;;5036310;28;20041;-72
2023/10/10 12:43:49;;;;;;;;;;;21.70;99.90;;;;;;5055471;28;20041;-73
2023/10/10 12:46:21;;;;;;;29.13;22.23;;;21.60;99.90;;;;;;5054661;28;19940;-73
2023/10/10 12:48:51;;;;;;;28.92;22.02;;;21.60;99.90;;;;;;5038342;28;20044;-73
2023/10/10 12:51:19;;;;;;;29.33;21.08;;;21.60;99.90;;;;;;5038894;28;20501;-73
2023/10/10 12:53:45;;;;;;;26.98;20.98;;;21.70;99.90;;;;;;5054702;28;20051;-73
2023/10/10 12:56:16;;;;;;;24.92;19.75;;;21.70;99.90;;;;;;5038252;28;20105;-74
2023/10/10 12:58:43;;;;;;;25.65;18.98;;;21.70;99.90;;;;;;5038651;28;20044;-71
2023/10/10 13:01:15;;;;;;;27.20;20.10;;;21.60;99.90;;;;;;5054845;28;20099;-72
2023/10/10 13:03:53;;;;;;;24.60;18.90;;;21.50;99.90;;;;;;5040644;28;20098;-73
2023/10/10 13:06:28;;;;;;;27.38;17.67;;;21.30;99.90;;;;;;5038115;28;20127;-73
2023/10/10 13:09:03;;;;;;;25.63;18.02;;;21.20;99.90;;;;;;5038102;28;20036;-73
2023/10/10 13:11:43;;;;;;;23.58;18.30;;;21.10;99.90;;;;;;5039025;28;20405;-72
2023/10/10 13:14:14;;;;;;;25.42;17.08;;;21.00;99.90;;;;;;5054160;28;20052;-72
2023/10/10 13:19:09;;;;;;;25.77;17.92;;;20.80;99.90;;;;;;5054253;28;20072;-73
2023/10/10 13:21:40;;;;;;;26.20;17.83;;;20.80;99.90;;;;;;5037671;28;20037;-72
2023/10/10 13:24:10;;;;;;;22.83;18.02;;;20.80;99.90;;;;;;5054526;28;20037;-73
2023/10/10 13:26:36;;;;;;;23.48;17.13;;;20.90;99.90;;;;;;5054706;28;20389;-67
2023/10/10 13:29:02;;;;;;;26.27;17.38;;;20.90;99.90;;;;;;5054188;28;20505;-68
2023/10/10 13:31:29;;;;;;;25.48;17.92;;;20.90;99.90;;;;;;5037247;28;20055;-67
2023/10/10 13:33:58;;;;;;;26.02;17.98;;;20.90;99.90;;;;;;5020933;28;20091;-67
2023/10/10 13:36:25;;;;;;;28.13;17.75;;;20.90;99.90;;;;;;5037743;28;20088;-72
2023/10/10 13:39:05;;;;;;;25.13;17.67;;;20.90;99.90;;;;;;5037418;28;20041;-71
2023/10/10 13:41:35;;;;;;;27.10;18.67;;;20.80;99.90;;;;;;5054132;28;20041;-73
2023/10/10 13:44:03;;;;;;;27.77;18.40;;;20.80;99.90;;;;;;5053703;28;20032;-73
2023/10/10 13:46:35;;;;;;;26.60;19.45;;;20.70;99.90;;;;;;5054008;28;20048;-72
2023/10/10 13:49:08;;;;;;;27.33;19.80;;;20.70;99.90;;;;;;5052952;28;20102;-72
2023/10/10 13:51:40;;;;;;;25.70;19.42;;;20.80;99.90;;;;;;5053690;28;20132;-72
2023/10/10 13:54:06;;;;;;;26.30;19.42;;;20.80;99.90;;;;;;5053093;28;20041;-73
2023/10/10 13:56:43;;;;;;;25.98;20.20;;;20.80;99.90;;;;;;5053537;28;20049;-73
2023/10/10 13:59:11;;;;;;;23.95;18.63;;;20.70;99.90;;;;;;5036976;28;20086;-73
2023/10/10 14:01:41;;;;;;;25.17;18.77;;;20.80;99.90;;;;;;5037199;28;20033;-73
2023/10/10 14:04:15;;;;;;;30.17;19.25;;;20.80;99.90;;;;;;5037012;28;20489;-72
2023/10/10 14:06:48;;;;;;;25.02;19.80;;;20.80;99.90;;;;;;5020819;28;20051;-73
2023/10/10 14:09:24;;;;;;;27.38;19.60;;;20.80;99.90;;;;;;5036809;28;20043;-72
2023/10/10 14:11:51;;;;;;;25.75;19.55;;;20.80;99.90;;;;;;5053686;28;20580;-73
2023/10/10 14:14:20;;;;;;;24.38;18.65;;;20.80;99.90;;;;;;5036628;28;20036;-72
2023/10/10 14:16:46;;;;;;;26.77;19.33;;;20.70;99.90;;;;;;5053326;28;20517;-72
2023/10/10 14:19:16;;;;;;;25.77;18.42;;;20.70;99.90;;;;;;5053010;28;20044;-75
2023/10/10 14:21:47;;;;;;;23.58;18.05;;;20.60;99.90;;;;;;5053198;28;20123;-73
2023/10/10 14:24:13;;;;;;;24.00;17.60;;;20.60;99.90;;;;;;5020890;28;20087;-73
2023/10/10 14:26:43;;;;;;;22.13;17.58;;;20.60;99.90;;;;;;5053103;28;20128;-73
2023/10/10 14:29:12;;;;;;;22.48;17.00;;;20.60;99.90;;;;;;5052911;28;20095;-74
2023/10/10 14:31:47;;;;;;;22.38;17.30;;;20.50;99.90;;;;;;5036660;28;20032;-72
2023/10/10 14:34:24;;;;;;;24.92;16.42;;;20.50;99.90;;;;;;5052659;28;20045;-72
2023/10/10 14:36:54;;;;;;;23.20;16.80;;;20.50;99.90;;;;;;5052563;28;20386;-67
2023/10/10 14:39:44;;;;;;;23.25;16.58;;;20.50;99.90;;;;;;5052553;28;20102;-68
2023/10/10 14:42:13;;;;;;;23.17;15.57;;;20.40;99.90;;;;;;5036705;28;20041;-68
2023/10/10 14:44:40;;;;;;;22.05;15.20;;;20.50;99.90;;;;;;5052451;28;20037;-67
2023/10/10 14:47:07;;;;;;;19.13;14.95;;;20.50;99.90;;;;;;5036058;28;20246;-73
2023/10/10 14:49:34;;;;;;;20.45;14.90;;;20.50;99.90;;;;;;5052570;28;20049;-72
2023/10/10 14:52:03;;;;;;;21.85;15.75;;;20.40;99.90;;;;;;5019895;28;20182;-73
2023/10/10 14:54:31;;;;;;;20.95;14.85;;;20.30;99.90;;;;;;5036193;28;20524;-73
2023/10/10 14:56:57;;;;;;;19.88;14.93;;;20.30;99.90;;;;;;5052677;28;20066;-72
2023/10/10 14:59:25;;;;;;;19.77;15.40;;;20.30;99.90;;;;;;5035782;28;20033;-72
2023/10/10 15:01:59;;;;;;;21.13;14.77;;;20.20;99.90;;;;;;5053032;28;20473;-72
2023/10/10 15:04:31;;;;;;;20.35;14.85;;;20.10;99.90;;;;;;5035122;28;20044;-71
2023/10/10 15:06:59;;;;;;;21.42;14.75;;;20.00;99.90;;;;;;5036268;28;20041;-74
2023/10/10 15:09:25;;;;;;;20.08;14.30;;;20.00;99.90;;;;;;5052831;28;20400;-73
2023/10/10 15:11:58;;;;;;;20.05;14.40;;;20.00;99.90;;;;;;5052580;28;20481;-72
2023/10/10 15:14:25;;;;;;;18.95;13.68;;;20.00;99.90;;;;;;5036647;28;20511;-72
2023/10/10 15:16:51;;;;;;;21.77;14.30;;;19.90;99.90;;;;;;5035786;28;20052;-72
2023/10/10 15:19:17;;;;;;;20.55;14.27;;;19.80;99.90;;;;;;5052507;28;20055;-73
2023/10/10 15:21:49;;;;;;;20.15;13.40;;;19.80;99.90;;;;;;5052142;28;20037;-72
2023/10/10 15:24:23;;;;;;;18.73;13.85;;;19.70;99.90;;;;;;5021416;28;20068;-72
2023/10/10 15:26:54;;;;;;;19.30;14.65;;;19.70;99.90;;;;;;5036028;28;20041;-74
2023/10/10 15:29:23;;;;;;;18.85;13.60;;;19.60;99.90;;;;;;5052163;28;20049;-74
2023/10/10 15:31:50;;;;;;;20.35;14.02;;;19.60;99.90;;;;;;5052312;28;20516;-72
2023/10/10 15:34:15;;;;;;;18.85;13.82;;;19.60;99.90;;;;;;5052027;28;20059;-71
2023/10/10 15:36:45;;;;;;;19.70;14.35;;;19.50;99.90;;;;;;5051648;28;20147;-73
2023/10/10 15:39:12;;;;;;;21.40;14.32;;;19.40;99.90;;;;;;5020146;28;20084;-72
2023/10/10 15:41:39;;;;;;;20.45;14.30;;;19.30;99.90;;;;;;5019304;28;20052;-73
2023/10/10 15:44:12;;;;;;;19.05;14.48;;;19.30;99.90;;;;;;5052053;28;20576;-72
2023/10/10 15:46:38;;;;;;;19.75;14.45;;;19.20;99.90;;;;;;5052412;28;20493;-72
2023/10/10 15:49:11;;;;;;;20.33;14.32;;;19.20;99.90;;;;;;5035475;28;20043;-72
2023/10/10 15:51:40;;;;;;;18.95;14.00;;;19.20;99.90;;;;;;5019742;28;20128;-71
2023/10/10 15:54:29;;;;;;;20.83;14.07;;;19.20;99.90;;;;;;5019829;28;20040;-73
2023/10/10 15:56:54;;;;;;;20.95;14.45;;;19.10;99.90;;;;;;5052223;28;20574;-66
2023/10/10 15:59:20;;;;;;;21.45;14.48;;;19.10;99.90;;;;;;5051602;28;20044;-67
2023/10/10 16:01:47;;;;;;;18.73;14.70;;;19.00;99.90;;;;;;5035256;28;20503;-67